San Diego, California
Traffic Map
Current Weather Conditions
San Diego, California
Broken Clouds
Broken Clouds
57°
Feels Like: 57°
Wind Chill: 57° Ceiling: 6000
Heat Index: 57° Visibility: 10mi
Dew Point: 35° Wind: 7mph
Humidity: 44% Direction: 230° (SW)
Pressure: 30.17in Gusts: 0mph
Raw Report DataKSAN 211951Z 23006KT 10SM SCT035 SCT045 BKN060 14/02 A3017 RMK AO2 SLP216 VCSH T01390017
Traffic Incident Summary
Active as of:
Severity:
Category:
InformationThere was an issue retrieving the traffic information for this location. Please try a different location or try again shortly.
Advertisements